createdAt,value
2022-12-04T00:02:00.489Z,6.93
2022-12-04T00:04:28.947Z,7.28
2022-12-04T00:06:59.131Z,6.72
2022-12-04T00:09:27.796Z,7.32
2022-12-04T00:11:56.378Z,7.50
2022-12-04T00:14:26.191Z,7.00
2022-12-04T00:16:54.752Z,6.72
2022-12-04T00:19:23.227Z,7.20
2022-12-04T00:21:51.925Z,7.05
2022-12-04T00:24:20.427Z,6.90
2022-12-04T00:26:48.965Z,7.25
2022-12-04T00:29:17.505Z,7.45
2022-12-04T00:31:47.401Z,6.65
2022-12-04T00:34:15.989Z,6.85
2022-12-04T00:36:44.911Z,7.60
2022-12-04T00:39:13.365Z,6.97
2022-12-04T00:41:41.893Z,7.80
2022-12-04T00:44:10.404Z,6.82
2022-12-04T00:46:38.960Z,6.80
2022-12-04T00:49:08.791Z,8.88
2022-12-04T00:51:37.186Z,6.50
2022-12-04T00:54:05.739Z,7.10
2022-12-04T00:56:34.258Z,7.03
2022-12-04T00:59:02.847Z,7.32
2022-12-04T01:01:31.754Z,6.95
2022-12-04T01:04:00.452Z,6.78
2022-12-04T01:06:32.875Z,6.90
2022-12-04T01:09:03.324Z,7.53
2022-12-04T01:11:31.965Z,7.20
2022-12-04T01:14:01.283Z,6.78
2022-12-04T01:16:31.729Z,6.18
2022-12-04T01:19:00.316Z,6.65
2022-12-04T01:21:30.182Z,6.30
2022-12-04T01:23:59.621Z,7.22
2022-12-04T01:26:28.419Z,7.72
2022-12-04T01:28:56.908Z,6.32
2022-12-04T01:31:25.752Z,6.43
2022-12-04T01:33:54.595Z,7.68
2022-12-04T01:36:26.516Z,6.95
2022-12-04T01:38:57.391Z,7.07
2022-12-04T01:41:27.549Z,6.90
2022-12-04T01:44:14.577Z,6.97
2022-12-04T01:46:44.583Z,6.82
2022-12-04T01:49:16.470Z,6.28
2022-12-04T01:51:48.889Z,6.10
2022-12-04T01:54:28.167Z,6.28
2022-12-04T01:57:01.870Z,6.25
2022-12-04T01:59:34.207Z,6.50
2022-12-04T02:02:05.757Z,6.15
2022-12-04T02:04:35.451Z,6.25
2022-12-04T02:07:05.299Z,9.13
2022-12-04T02:09:39.297Z,5.93
2022-12-04T02:12:16.926Z,6.57
2022-12-04T02:14:53.407Z,6.50
2022-12-04T02:17:29.245Z,6.43
2022-12-04T02:20:18.593Z,6.20
2022-12-04T02:23:07.462Z,5.75
2022-12-04T02:25:45.206Z,6.07
2022-12-04T02:28:23.902Z,5.90
2022-12-04T02:30:57.479Z,6.18
2022-12-04T02:33:29.982Z,5.57
2022-12-04T02:36:05.610Z,6.43
2022-12-04T02:38:38.257Z,6.20
2022-12-04T02:41:12.558Z,5.97
2022-12-04T02:43:46.628Z,5.60
2022-12-04T02:46:19.550Z,6.00
2022-12-04T02:48:51.414Z,4.75
2022-12-04T02:51:24.012Z,5.53
2022-12-04T02:53:57.086Z,5.93
2022-12-04T02:56:29.062Z,5.93
2022-12-04T02:59:03.227Z,6.32
2022-12-04T03:04:10.939Z,5.63
2022-12-04T03:06:43.508Z,6.00
2022-12-04T03:09:16.742Z,5.13
2022-12-04T03:11:53.850Z,5.85
2022-12-04T03:14:28.660Z,5.78
2022-12-04T03:17:03.361Z,5.53
2022-12-04T03:19:38.296Z,7.35
2022-12-04T03:22:11.388Z,6.85
2022-12-04T03:24:44.575Z,5.32
2022-12-04T03:27:17.876Z,5.50
2022-12-04T03:29:54.979Z,5.22
2022-12-04T03:32:30.672Z,6.18
2022-12-04T03:35:04.775Z,5.32
2022-12-04T03:37:40.167Z,5.63
2022-12-04T03:40:16.586Z,5.13
2022-12-04T03:42:51.105Z,4.57
2022-12-04T03:45:26.309Z,5.10
2022-12-04T03:47:59.981Z,5.63
2022-12-04T03:50:36.927Z,5.97
2022-12-04T03:53:10.706Z,5.88
2022-12-04T03:55:44.532Z,6.13
2022-12-04T03:58:17.925Z,5.35
2022-12-04T04:00:52.104Z,5.30
2022-12-04T04:03:23.923Z,5.03
2022-12-04T04:05:57.473Z,4.72
2022-12-04T04:08:33.903Z,5.55
2022-12-04T04:11:11.636Z,5.00
2022-12-04T04:14:05.176Z,5.38
2022-12-04T04:16:56.055Z,5.65
2022-12-04T04:19:46.940Z,4.88
2022-12-04T04:22:54.450Z,5.03
2022-12-04T04:25:28.199Z,5.90
2022-12-04T04:27:59.229Z,5.13
2022-12-04T04:30:30.883Z,4.35
2022-12-04T04:33:09.600Z,5.47
2022-12-04T04:35:47.169Z,5.05
2022-12-04T04:38:22.248Z,4.80
2022-12-04T04:40:57.856Z,4.75
2022-12-04T04:43:31.487Z,5.07
2022-12-04T04:46:05.068Z,5.13
2022-12-04T04:48:37.977Z,5.07
2022-12-04T04:51:07.450Z,5.90
2022-12-04T04:53:41.635Z,5.03
2022-12-04T04:58:38.771Z,4.40
2022-12-04T05:01:10.867Z,4.93
2022-12-04T05:03:41.699Z,4.47
2022-12-04T05:06:10.744Z,5.53
2022-12-04T05:08:39.695Z,4.82
2022-12-04T05:11:13.681Z,4.60
2022-12-04T05:13:43.909Z,4.53
2022-12-04T05:16:15.323Z,4.80
2022-12-04T05:19:05.499Z,5.00
2022-12-04T05:21:33.864Z,5.03
2022-12-04T05:24:02.617Z,5.95
2022-12-04T05:26:31.031Z,5.80
2022-12-04T05:28:59.444Z,4.97
2022-12-04T05:31:27.961Z,4.70
2022-12-04T05:33:58.243Z,4.97
2022-12-04T05:36:26.677Z,4.65
2022-12-04T05:38:55.053Z,4.88
2022-12-04T05:41:24.011Z,4.38
2022-12-04T05:43:53.407Z,4.60
2022-12-04T05:46:21.831Z,4.50
2022-12-04T05:48:50.254Z,4.35
2022-12-04T05:51:20.070Z,3.90
2022-12-04T05:53:48.544Z,4.40
2022-12-04T05:56:16.986Z,4.28
2022-12-04T05:58:45.493Z,3.88
2022-12-04T06:01:17.436Z,4.65
2022-12-04T06:03:46.012Z,3.42
2022-12-04T06:06:20.957Z,5.72
2022-12-04T06:08:53.014Z,3.90
2022-12-04T06:11:24.848Z,4.20
2022-12-04T06:13:54.048Z,3.58
2022-12-04T06:16:24.135Z,4.57
2022-12-04T06:18:54.484Z,5.22
2022-12-04T06:21:24.233Z,4.88
2022-12-04T06:23:54.197Z,4.50
2022-12-04T06:26:23.355Z,4.40
2022-12-04T06:28:53.836Z,4.85
2022-12-04T06:31:22.363Z,4.97
2022-12-04T06:33:51.332Z,4.03
2022-12-04T06:36:22.013Z,4.20
2022-12-04T06:38:51.253Z,4.35
2022-12-04T06:41:22.133Z,4.82
2022-12-04T06:43:51.850Z,4.18
2022-12-04T06:46:22.864Z,3.97
2022-12-04T06:48:52.011Z,4.80
2022-12-04T06:51:22.728Z,4.32
2022-12-04T06:53:51.691Z,6.07
2022-12-04T06:56:24.011Z,4.93
2022-12-04T06:58:54.803Z,4.57
2022-12-04T07:01:25.297Z,4.43
2022-12-04T07:03:54.696Z,5.32
2022-12-04T07:06:26.263Z,5.00
2022-12-04T07:09:00.445Z,3.63
2022-12-04T07:13:59.226Z,4.47
2022-12-04T07:16:31.067Z,4.78
2022-12-04T07:19:02.531Z,5.10
2022-12-04T07:21:32.467Z,4.80
2022-12-04T07:24:02.280Z,4.43
2022-12-04T07:26:32.471Z,3.90
2022-12-04T07:29:01.435Z,4.63
2022-12-04T07:31:30.607Z,4.18
2022-12-04T07:34:00.052Z,4.05
2022-12-04T07:36:28.780Z,4.22
2022-12-04T07:38:57.638Z,4.10
2022-12-04T07:41:26.403Z,5.78
2022-12-04T07:43:56.335Z,4.25
2022-12-04T07:46:27.609Z,4.55
2022-12-04T07:48:57.482Z,4.35
2022-12-04T07:51:27.599Z,3.78
2022-12-04T07:54:02.078Z,4.18
2022-12-04T07:56:32.007Z,4.47
2022-12-04T07:59:02.077Z,4.40
2022-12-04T08:01:30.904Z,3.80
2022-12-04T08:04:00.800Z,4.07
2022-12-04T08:06:31.190Z,4.63
2022-12-04T08:09:03.517Z,4.63
2022-12-04T08:11:34.891Z,4.43
2022-12-04T08:14:08.712Z,4.72
2022-12-04T08:16:37.348Z,4.53
2022-12-04T08:19:05.935Z,4.00
2022-12-04T08:21:34.775Z,5.47
2022-12-04T08:24:03.837Z,4.57
2022-12-04T08:26:33.442Z,5.50
2022-12-04T08:29:02.422Z,5.05
2022-12-04T08:31:34.191Z,4.55
2022-12-04T08:34:04.988Z,4.45
2022-12-04T08:36:34.793Z,5.53
2022-12-04T08:39:03.634Z,6.95
2022-12-04T08:41:32.186Z,4.75
2022-12-04T08:44:01.006Z,5.50
2022-12-04T08:46:29.812Z,4.82
2022-12-04T08:48:59.952Z,6.60
2022-12-04T08:51:30.713Z,11.25
2022-12-04T08:54:01.031Z,6.55
2022-12-04T08:56:31.378Z,5.93
2022-12-04T08:59:01.007Z,6.72
2022-12-04T09:01:30.407Z,6.70
2022-12-04T09:04:00.622Z,6.05
2022-12-04T09:06:29.107Z,5.70
2022-12-04T09:08:58.341Z,5.80
2022-12-04T09:11:29.605Z,9.15
2022-12-04T09:13:58.094Z,7.15
2022-12-04T09:16:27.251Z,4.72
2022-12-04T09:18:56.573Z,7.05
2022-12-04T09:21:26.894Z,7.97
2022-12-04T09:23:55.495Z,9.48
2022-12-04T09:26:26.428Z,6.13
2022-12-04T09:28:56.898Z,6.43
2022-12-04T09:31:25.995Z,5.85
2022-12-04T09:33:55.050Z,5.20
2022-12-04T09:36:23.555Z,4.90
2022-12-04T09:38:54.855Z,5.57
2022-12-04T09:41:46.492Z,5.00
2022-12-04T09:44:21.304Z,5.50
2022-12-04T09:46:53.748Z,5.55
2022-12-04T09:49:26.924Z,4.53
2022-12-04T09:52:00.424Z,6.22
2022-12-04T09:54:38.527Z,5.03
2022-12-04T09:57:16.258Z,5.38
2022-12-04T09:59:46.293Z,5.10
2022-12-04T10:02:32.862Z,9.27
2022-12-04T10:05:01.444Z,6.03
2022-12-04T10:07:34.726Z,5.05
2022-12-04T10:10:13.901Z,5.38
2022-12-04T10:12:51.802Z,6.82
2022-12-04T10:15:30.777Z,5.43
2022-12-04T10:18:19.741Z,6.75
2022-12-04T10:21:01.082Z,5.60
2022-12-04T10:23:43.790Z,7.47
2022-12-04T10:26:16.910Z,5.97
2022-12-04T10:28:54.980Z,9.63
2022-12-04T10:31:25.903Z,5.65
2022-12-04T10:33:57.701Z,14.50
2022-12-04T10:36:31.818Z,11.25
2022-12-04T10:41:41.705Z,9.30
2022-12-04T10:44:15.691Z,9.18
2022-12-04T10:46:46.319Z,6.18
2022-12-04T10:49:20.171Z,9.23
2022-12-04T10:51:49.235Z,11.48
2022-12-04T10:54:22.523Z,12.00
2022-12-04T10:56:54.731Z,11.15
2022-12-04T10:59:23.927Z,11.48
2022-12-04T11:02:04.768Z,15.27
2022-12-04T11:04:36.365Z,14.48
2022-12-04T11:07:08.631Z,16.33
2022-12-04T11:09:37.959Z,12.13
2022-12-04T11:12:10.429Z,9.23
2022-12-04T11:14:42.744Z,10.57
2022-12-04T11:17:18.103Z,15.45
2022-12-04T11:19:46.642Z,14.70
2022-12-04T11:22:17.171Z,12.05
2022-12-04T11:24:52.178Z,15.10
2022-12-04T11:27:28.905Z,15.13
2022-12-04T11:29:57.950Z,18.88
2022-12-04T11:32:30.000Z,14.27
2022-12-04T11:35:02.180Z,17.48
2022-12-04T11:37:33.902Z,14.95
2022-12-04T11:40:04.872Z,11.52
2022-12-04T11:42:34.692Z,11.98
2022-12-04T11:45:05.287Z,12.38
2022-12-04T11:47:34.224Z,15.48
2022-12-04T11:50:27.544Z,8.98
2022-12-04T11:53:07.348Z,10.77
2022-12-04T11:55:45.175Z,16.33
2022-12-04T11:58:39.268Z,17.42
2022-12-04T12:01:21.166Z,8.73
2022-12-04T12:04:02.821Z,11.20
2022-12-04T12:06:35.777Z,11.50
2022-12-04T12:09:23.867Z,9.75
2022-12-04T12:11:59.790Z,11.13
2022-12-04T12:14:35.783Z,10.10
2022-12-04T12:17:14.574Z,11.25
2022-12-04T12:20:06.589Z,7.93
2022-12-04T12:22:53.267Z,9.65
2022-12-04T12:25:26.947Z,12.65
2022-12-04T12:28:13.293Z,7.15
2022-12-04T12:30:54.030Z,7.07
2022-12-04T12:33:25.822Z,6.43
2022-12-04T12:36:02.191Z,9.75
2022-12-04T12:38:35.894Z,6.95
2022-12-04T12:41:08.587Z,9.02
2022-12-04T12:43:40.004Z,9.52
2022-12-04T12:46:15.889Z,8.50
2022-12-04T12:48:56.702Z,7.70
2022-12-04T12:51:35.395Z,7.35
2022-12-04T12:54:15.546Z,8.13
2022-12-04T12:56:50.707Z,6.28
2022-12-04T12:59:23.488Z,8.93
2022-12-04T13:02:00.926Z,9.50
2022-12-04T13:04:36.085Z,9.05
2022-12-04T13:07:20.938Z,6.70
2022-12-04T13:09:55.464Z,6.22
2022-12-04T13:12:25.885Z,6.53
2022-12-04T13:14:54.550Z,6.30
2022-12-04T13:17:32.415Z,6.90
2022-12-04T13:20:09.948Z,8.55
2022-12-04T13:22:47.506Z,6.57
2022-12-04T13:25:31.339Z,5.88
2022-12-04T13:28:13.819Z,6.65
2022-12-04T13:30:49.582Z,7.10
2022-12-04T13:33:44.421Z,5.78
2022-12-04T13:36:36.951Z,6.18
2022-12-04T13:39:37.384Z,7.50
2022-12-04T13:42:07.758Z,5.65
2022-12-04T13:44:36.600Z,8.48
2022-12-04T13:47:07.350Z,8.35
2022-12-04T13:49:42.050Z,7.40
2022-12-04T13:52:24.078Z,5.75
2022-12-04T13:54:58.883Z,6.72
2022-12-04T13:57:28.375Z,5.75
2022-12-04T14:00:05.933Z,6.03
2022-12-04T14:02:50.460Z,5.18
2022-12-04T14:05:27.811Z,6.47
2022-12-04T14:08:07.757Z,6.00
2022-12-04T14:10:39.498Z,7.22
2022-12-04T14:13:18.854Z,6.18
2022-12-04T14:15:47.590Z,6.20
2022-12-04T14:18:21.479Z,6.47
2022-12-04T14:21:00.025Z,6.47
2022-12-04T14:23:36.162Z,6.07
2022-12-04T14:26:05.871Z,6.15
2022-12-04T14:28:44.403Z,5.85
2022-12-04T14:31:33.766Z,6.20
2022-12-04T14:34:04.948Z,6.50
2022-12-04T14:36:42.082Z,6.18
2022-12-04T14:39:19.083Z,6.30
2022-12-04T14:41:47.609Z,6.50
2022-12-04T14:44:26.553Z,6.65
2022-12-04T14:46:59.619Z,5.68
2022-12-04T14:49:41.507Z,6.32
2022-12-04T14:52:19.568Z,7.95
2022-12-04T14:54:56.435Z,5.82
2022-12-04T14:57:45.645Z,6.75
2022-12-04T15:00:19.964Z,6.13
2022-12-04T15:02:50.357Z,6.25
2022-12-04T15:05:23.315Z,6.35
2022-12-04T15:07:55.273Z,6.30
2022-12-04T15:10:43.250Z,6.35
2022-12-04T15:13:16.065Z,5.60
2022-12-04T15:15:47.500Z,6.30
2022-12-04T15:18:17.584Z,6.18
2022-12-04T15:20:56.918Z,6.78
2022-12-04T15:23:30.939Z,5.80
2022-12-04T15:28:34.257Z,6.50
2022-12-04T15:31:05.839Z,5.13
2022-12-04T15:33:37.799Z,7.40
2022-12-04T15:36:10.520Z,5.30
2022-12-04T15:38:41.359Z,6.72
2022-12-04T15:41:30.203Z,5.45
2022-12-04T15:43:59.103Z,6.20
2022-12-04T15:46:32.692Z,5.88
2022-12-04T15:49:09.210Z,5.78
2022-12-04T15:51:37.699Z,5.82
2022-12-04T15:54:14.837Z,6.15
2022-12-04T15:56:43.422Z,5.82
2022-12-04T15:59:18.164Z,6.07
2022-12-04T16:01:46.886Z,6.63
2022-12-04T16:04:22.499Z,6.07
2022-12-04T16:06:53.681Z,6.20
2022-12-04T16:09:25.379Z,7.32
2022-12-04T16:12:02.095Z,6.20
2022-12-04T16:14:30.906Z,6.22
2022-12-04T16:17:06.291Z,5.32
2022-12-04T16:19:37.347Z,7.13
2022-12-04T16:22:13.153Z,5.68
2022-12-04T16:24:44.287Z,6.50
2022-12-04T16:27:14.631Z,5.82
2022-12-04T16:29:43.537Z,5.97
2022-12-04T16:32:12.852Z,6.50
2022-12-04T16:34:42.005Z,5.60
2022-12-04T16:37:14.032Z,5.72
2022-12-04T16:39:44.711Z,6.15
2022-12-04T16:42:17.352Z,7.28
2022-12-04T16:44:46.614Z,6.50
2022-12-04T16:47:16.424Z,5.72
2022-12-04T16:49:46.274Z,5.90
2022-12-04T16:52:15.218Z,6.60
2022-12-04T16:54:45.207Z,5.70
2022-12-04T16:57:13.978Z,6.28
2022-12-04T16:59:42.510Z,6.68
2022-12-04T17:02:16.724Z,6.07
2022-12-04T17:04:45.348Z,6.80
2022-12-04T17:07:13.793Z,6.00
2022-12-04T17:09:45.194Z,5.75
2022-12-04T17:12:13.629Z,5.97
2022-12-04T17:14:42.162Z,6.40
2022-12-04T17:17:10.631Z,6.82
2022-12-04T17:19:39.738Z,6.07
2022-12-04T17:22:08.216Z,5.88
2022-12-04T17:24:40.761Z,6.25
2022-12-04T17:27:15.335Z,6.30
2022-12-04T17:29:43.832Z,6.63
2022-12-04T17:32:12.302Z,7.10
2022-12-04T17:34:40.755Z,6.53
2022-12-04T17:37:09.320Z,6.05
2022-12-04T17:39:37.863Z,6.72
2022-12-04T17:42:06.521Z,5.97
2022-12-04T17:44:36.341Z,6.30
2022-12-04T17:47:05.122Z,6.95
2022-12-04T17:49:33.999Z,6.60
2022-12-04T17:52:02.928Z,6.65
2022-12-04T17:54:31.932Z,6.18
2022-12-04T17:57:00.508Z,7.07
2022-12-04T17:59:29.451Z,6.38
2022-12-04T18:01:59.317Z,6.75
2022-12-04T18:04:27.813Z,6.43
2022-12-04T18:06:56.478Z,6.22
2022-12-04T18:09:24.919Z,7.13
2022-12-04T18:11:53.419Z,6.65
2022-12-04T18:14:23.478Z,6.07
2022-12-04T18:16:54.442Z,6.65
2022-12-04T18:19:26.118Z,6.18
2022-12-04T18:21:55.161Z,7.20
2022-12-04T18:24:25.017Z,6.40
2022-12-04T18:26:54.437Z,8.23
2022-12-04T18:29:24.943Z,6.57
2022-12-04T18:31:54.108Z,6.30
2022-12-04T18:34:24.571Z,6.07
2022-12-04T18:36:53.188Z,8.05
2022-12-04T18:39:24.083Z,6.40
2022-12-04T18:41:56.603Z,10.82
2022-12-04T18:44:25.961Z,5.97
2022-12-04T18:46:54.514Z,7.18
2022-12-04T18:49:24.337Z,5.78
2022-12-04T18:51:52.875Z,6.90
2022-12-04T18:54:22.841Z,7.28
2022-12-04T18:56:51.811Z,7.43
2022-12-04T18:59:22.215Z,7.50
2022-12-04T19:01:51.223Z,7.15
2022-12-04T19:04:22.054Z,6.50
2022-12-04T19:06:54.123Z,7.53
2022-12-04T19:09:47.125Z,6.97
2022-12-04T19:12:13.957Z,6.38
2022-12-04T19:14:42.652Z,6.32
2022-12-04T19:17:11.654Z,7.38
2022-12-04T19:19:40.156Z,6.47
2022-12-04T19:22:10.051Z,6.60
2022-12-04T19:24:38.647Z,7.85
2022-12-04T19:27:11.834Z,7.30
2022-12-04T19:29:41.696Z,5.95
2022-12-04T19:32:11.734Z,7.10
2022-12-04T19:34:40.576Z,6.72
2022-12-04T19:37:10.488Z,6.32
2022-12-04T19:39:39.083Z,6.97
2022-12-04T19:42:07.609Z,6.70
2022-12-04T19:44:51.986Z,6.82
2022-12-04T19:47:20.615Z,6.82
2022-12-04T19:49:49.148Z,7.43
2022-12-04T19:52:19.307Z,6.32
2022-12-04T19:54:47.830Z,6.03
2022-12-04T19:57:16.690Z,7.68
2022-12-04T19:59:46.828Z,7.30
2022-12-04T20:02:15.810Z,6.82
2022-12-04T20:04:44.699Z,6.60
2022-12-04T20:07:13.287Z,6.40
2022-12-04T20:09:47.391Z,5.68
2022-12-04T20:12:19.032Z,7.63
2022-12-04T20:14:47.499Z,6.82
2022-12-04T20:17:15.960Z,6.38
2022-12-04T20:19:44.441Z,6.35
2022-12-04T20:22:12.960Z,6.43
2022-12-04T20:24:42.965Z,6.35
2022-12-04T20:27:11.474Z,5.88
2022-12-04T20:29:39.978Z,6.82
2022-12-04T20:32:08.435Z,7.70
2022-12-04T20:34:43.042Z,7.20
2022-12-04T20:37:12.235Z,7.35
2022-12-04T20:39:40.753Z,7.13
2022-12-04T20:42:10.662Z,7.78
2022-12-04T20:44:39.224Z,7.07
2022-12-04T20:47:07.703Z,7.68
2022-12-04T20:49:36.232Z,7.53
2022-12-04T20:52:05.405Z,7.28
2022-12-04T20:54:41.006Z,6.97
2022-12-04T20:57:11.791Z,7.28
2022-12-04T20:59:40.417Z,6.95
2022-12-04T21:02:08.922Z,7.35
2022-12-04T21:04:38.687Z,6.68
2022-12-04T21:07:07.682Z,7.53
2022-12-04T21:09:36.192Z,7.05
2022-12-04T21:12:25.307Z,6.72
2022-12-04T21:15:13.154Z,7.35
2022-12-04T21:17:41.828Z,7.60
2022-12-04T21:20:11.689Z,7.70
2022-12-04T21:22:40.353Z,7.10
2022-12-04T21:25:10.144Z,7.40
2022-12-04T21:27:38.712Z,7.35
2022-12-04T21:30:10.159Z,7.00
2022-12-04T21:32:38.762Z,6.55
2022-12-04T21:35:08.048Z,7.60
2022-12-04T21:37:36.667Z,6.63
2022-12-04T21:40:06.027Z,7.20
2022-12-04T21:42:35.406Z,7.22
2022-12-04T21:45:07.565Z,6.30
2022-12-04T21:47:37.999Z,7.50
2022-12-04T21:50:08.012Z,7.30
2022-12-04T21:52:36.639Z,7.13
2022-12-04T21:55:05.837Z,7.30
2022-12-04T21:57:34.322Z,7.10
2022-12-04T22:00:04.037Z,6.72
2022-12-04T22:02:34.805Z,6.68
2022-12-04T22:05:05.050Z,7.90
2022-12-04T22:07:33.824Z,7.78
2022-12-04T22:10:08.610Z,7.00
2022-12-04T22:12:49.540Z,7.45
2022-12-04T22:15:18.903Z,7.65
2022-12-04T22:17:47.470Z,6.72
2022-12-04T22:20:18.096Z,7.05
2022-12-04T22:22:46.622Z,7.72
2022-12-04T22:25:15.393Z,8.00
2022-12-04T22:27:43.927Z,7.13
2022-12-04T22:30:13.796Z,6.07
2022-12-04T22:32:42.321Z,7.50
2022-12-04T22:35:10.999Z,7.72
2022-12-04T22:37:44.297Z,7.90
2022-12-04T22:40:14.253Z,7.25
2022-12-04T22:42:42.801Z,7.40
2022-12-04T22:45:11.988Z,7.50
2022-12-04T22:47:40.493Z,8.45
2022-12-04T22:50:09.895Z,7.47
2022-12-04T22:52:39.852Z,7.32
2022-12-04T22:55:08.951Z,8.82
2022-12-04T22:57:37.406Z,7.38
2022-12-04T23:00:09.199Z,7.32
2022-12-04T23:02:37.725Z,7.65
2022-12-04T23:05:06.466Z,7.10
2022-12-04T23:07:34.894Z,7.68
2022-12-04T23:10:05.347Z,8.23
2022-12-04T23:12:33.884Z,8.23
2022-12-04T23:15:02.378Z,7.70
2022-12-04T23:17:32.515Z,8.30
2022-12-04T23:20:01.135Z,7.10
2022-12-04T23:22:30.951Z,7.93
2022-12-04T23:24:59.362Z,8.05
2022-12-04T23:27:31.360Z,7.47
2022-12-04T23:29:59.830Z,7.20
2022-12-04T23:32:28.286Z,8.18
2022-12-04T23:34:56.811Z,7.45
2022-12-04T23:37:25.301Z,7.72
2022-12-04T23:39:53.922Z,8.25
2022-12-04T23:42:22.427Z,8.07
2022-12-04T23:44:52.295Z,8.55
2022-12-04T23:47:20.793Z,7.55
2022-12-04T23:49:49.382Z,7.80
2022-12-04T23:52:17.811Z,7.32
2022-12-04T23:54:47.510Z,7.53
2022-12-04T23:57:15.983Z,7.72
2022-12-04T23:59:44.418Z,8.23
